Capt. Billy Slatten — WDC3380 — position and weather

sailwx.info

Track history (hours):
 
Tides and Currents Weather Stations Pressure Air Temp Water Temp Dewpoint Dewpoint Depression Visibility Wind Speed Wind Dir Waves Ship Positions

Capt. Billy Slatten

Owner: Bisso Towboat Co., Inc., New Orleans, LA. More information available from US FCC via Universal Licensing System and Coast Guard Vessel Documentation Center.

Last reported at 2014-Oct-31 13:25 UTC. Time now 2014-Nov-01 03:23 UTC.
Position N 29°55' W 090°06'.

Length 30 m; draft 3.5 m.

Type: Tug. MMSI: 367007030.

Date/timePositionNaut miles runAvg speedWind from/ knotsBaromVisibWave heightAir tempDewpointWater temp
2014-Oct-31 13:25N 29°55' W 090°06'1 0.7
2014-Oct-31 12:32N 29°55' W 090°05'3 2.5
2014-Oct-31 11:33N 29°55' W 090°08'0 0.0
2014-Oct-31 10:27N 29°55' W 090°08'0 0.0
2014-Oct-31 09:32N 29°55' W 090°08'0 0.0
2014-Oct-31 08:27N 29°55' W 090°08'0 0.0
2014-Oct-31 07:12N 29°55' W 090°08'2 3.3
2014-Oct-31 06:29N 29°55' W 090°06'0 0.3
2014-Oct-31 05:26N 29°55' W 090°06'0 0.0
2014-Oct-31 04:13N 29°55' W 090°06'2 2.5
2014-Oct-31 03:24N 29°56' W 090°04'1 0.6
2014-Oct-31 02:33N 29°55' W 090°04'0 0.0
2014-Oct-31 01:33N 29°55' W 090°04'3 0.4
2014-Oct-30 17:26N 29°55' W 090°08'2 0.8
2014-Oct-30 15:12N 29°55' W 090°06'0 0.0
2014-Oct-30 11:09N 29°55' W 090°06'0 0.1
2014-Oct-30 08:33N 29°55' W 090°06'0 0.3
2014-Oct-30 07:33N 29°55' W 090°05'3 2.4
2014-Oct-30 06:30N 29°55' W 090°08'0 0.0
2014-Oct-30 05:33N 29°55' W 090°08'0 0.0
2014-Oct-30 04:31N 29°55' W 090°08'0 0.0
2014-Oct-30 03:29N 29°55' W 090°08'8 0.7
2014-Oct-29 16:26N 29°56' W 089°59'33 1.1
2014-Oct-28 10:18N 30°03' W 090°36'0 0.3
2014-Oct-28 09:19N 30°03' W 090°36'  
2014-Oct-26 03:25N 29°55' W 090°04'4 4.2
2014-Oct-26 02:32N 29°56' W 089°60'0 0.2
2014-Oct-26 01:32N 29°56' W 089°60'24 1.1
2014-Oct-25 04:10N 29°60' W 090°27'8 0.3
2014-Oct-24 02:33N 30°02' W 090°36'  
Track history (hours):
 
Tides and Currents Weather Stations Pressure Air Temp Water Temp Dewpoint Dewpoint Depression Visibility Wind Speed Wind Dir Waves Ship Positions

Capt. Billy Slatten

Owner: Bisso Towboat Co., Inc., New Orleans, LA. More information available from US FCC via Universal Licensing System and Coast Guard Vessel Documentation Center.

Last reported at 2014-Oct-31 13:25 UTC. Time now 2014-Nov-01 03:23 UTC.
Position N 29°55' W 090°06'.

Length 30 m; draft 3.5 m.

Type: Tug. MMSI: 367007030.

Date/timePositionNaut miles runAvg speedWind from/ knotsBaromVisibWave heightAir tempDewpointWater temp
2014-Oct-31 13:25N 29°55' W 090°06'1 0.7
2014-Oct-31 12:32N 29°55' W 090°05'3 2.5
2014-Oct-31 11:33N 29°55' W 090°08'0 0.0
2014-Oct-31 10:27N 29°55' W 090°08'0 0.0
2014-Oct-31 09:32N 29°55' W 090°08'0 0.0
2014-Oct-31 08:27N 29°55' W 090°08'0 0.0
2014-Oct-31 07:12N 29°55' W 090°08'2 3.3
2014-Oct-31 06:29N 29°55' W 090°06'0 0.3
2014-Oct-31 05:26N 29°55' W 090°06'0 0.0
2014-Oct-31 04:13N 29°55' W 090°06'2 2.5
2014-Oct-31 03:24N 29°56' W 090°04'1 0.6
2014-Oct-31 02:33N 29°55' W 090°04'0 0.0
2014-Oct-31 01:33N 29°55' W 090°04'3 0.4
2014-Oct-30 17:26N 29°55' W 090°08'2 0.8
2014-Oct-30 15:12N 29°55' W 090°06'0 0.0
2014-Oct-30 11:09N 29°55' W 090°06'0 0.1
2014-Oct-30 08:33N 29°55' W 090°06'0 0.3
2014-Oct-30 07:33N 29°55' W 090°05'3 2.4
2014-Oct-30 06:30N 29°55' W 090°08'0 0.0
2014-Oct-30 05:33N 29°55' W 090°08'0 0.0
2014-Oct-30 04:31N 29°55' W 090°08'0 0.0
2014-Oct-30 03:29N 29°55' W 090°08'8 0.7
2014-Oct-29 16:26N 29°56' W 089°59'33 1.1
2014-Oct-28 10:18N 30°03' W 090°36'0 0.3
2014-Oct-28 09:19N 30°03' W 090°36'  
2014-Oct-26 03:25N 29°55' W 090°04'4 4.2
2014-Oct-26 02:32N 29°56' W 089°60'0 0.2
2014-Oct-26 01:32N 29°56' W 089°60'24 1.1
2014-Oct-25 04:10N 29°60' W 090°27'8 0.3
2014-Oct-24 02:33N 30°02' W 090°36'  

Dump ship's entire track history